Time;durP1;ratioP1;P1;durP2;ratioP2;P2;SDS_P1;SDS_P2;PMS_P1;PMS_P2;Temp;Humidity;BMP_temperature;BMP_pressure;BME280_temperature;BME280_humidity;BME280_pressure;Samples;Min_cycle;Max_cycle;Signal;HPM_P1;HPM_P2
2021/07/23 00:01:14;;;;;;;6.80;5.05;;;;;;;;;;3524575;39;107569;-61
2021/07/23 00:03:41;;;;;;;6.15;4.78;;;;;;;;;;3524735;39;105727;-61
2021/07/23 00:06:28;;;;;;;6.88;5.43;;;;;;;;;;3525013;39;105571;-62
2021/07/23 00:08:56;;;;;;;5.90;4.90;;;;;;;;;;3524288;39;107055;-61
2021/07/23 00:11:24;;;;;;;6.30;4.75;;;;;;;;;;3524304;39;107520;-62
2021/07/23 00:13:53;;;;;;;5.63;5.10;;;;;;;;;;3521371;39;105390;-62
2021/07/23 00:16:20;;;;;;;5.93;4.53;;;;;;;;;;3520243;40;105307;-61
2021/07/23 00:18:47;;;;;;;5.28;4.78;;;;;;;;;;3520058;40;106839;-61
2021/07/23 00:21:14;;;;;;;5.00;4.50;;;;;;;;;;3520213;40;107512;-59
2021/07/23 00:23:41;;;;;;;5.20;4.57;;;;;;;;;;3520210;40;105571;-61
2021/07/23 00:26:18;;;;;;;6.05;5.00;;;;;;;;;;3520263;40;105409;-60
2021/07/23 00:28:46;;;;;;;5.10;4.25;;;;;;;;;;3519818;40;106993;-60
2021/07/23 00:31:13;;;;;;;7.45;4.93;;;;;;;;;;3519870;40;108044;-60
2021/07/23 00:33:40;;;;;;;5.03;4.53;;;;;;;;;;3520110;40;105283;-60
2021/07/23 00:36:07;;;;;;;6.10;4.88;;;;;;;;;;3520040;40;105240;-60
2021/07/23 00:38:34;;;;;;;5.03;4.38;;;;;;;;;;3520244;40;107395;-61
2021/07/23 00:41:01;;;;;;;4.97;4.45;;;;;;;;;;3519817;40;107499;-61
2021/07/23 00:43:28;;;;;;;4.53;3.97;;;;;;;;;;3519990;40;105519;-62
2021/07/23 00:45:55;;;;;;;4.88;4.38;;;;;;;;;;3519859;40;105169;-62
2021/07/23 00:48:23;;;;;;;6.15;4.47;;;;;;;;;;3519809;40;106943;-62
2021/07/23 00:50:50;;;;;;;4.20;3.80;;;;;;;;;;3520184;40;107310;-62
2021/07/23 00:53:18;;;;;;;4.45;4.05;;;;;;;;;;3520260;40;105151;-60
2021/07/23 00:55:53;;;;;;;4.43;4.03;;;;;;;;;;3520114;40;105547;-60
2021/07/23 00:58:21;;;;;;;4.40;4.00;;;;;;;;;;3519890;40;106828;-60
2021/07/23 01:00:48;;;;;;;4.53;4.13;;;;;;;;;;3519654;39;107633;-62
2021/07/23 01:03:16;;;;;;;4.30;3.88;;;;;;;;;;3519732;40;105503;-61
2021/07/23 01:05:42;;;;;;;5.20;3.78;;;;;;;;;;3525689;39;105462;-61
2021/07/23 01:08:09;;;;;;;4.30;3.88;;;;;;;;;;3529992;39;106926;-60
2021/07/23 01:10:37;;;;;;;5.05;3.90;;;;;;;;;;3529921;39;107449;-60
2021/07/23 01:13:04;;;;;;;5.75;3.92;;;;;;;;;;3529771;39;105588;-61
2021/07/23 01:15:32;;;;;;;4.10;3.60;;;;;;;;;;3529865;39;105260;-61
2021/07/23 01:17:59;;;;;;;3.97;3.58;;;;;;;;;;3529618;39;106990;-61
2021/07/23 01:20:27;;;;;;;3.92;3.50;;;;;;;;;;3529658;39;108102;-61
2021/07/23 01:22:59;;;;;;;3.83;3.50;;;;;;;;;;3529758;39;105509;-61
2021/07/23 01:25:27;;;;;;;4.40;3.70;;;;;;;;;;3529877;39;106304;-62
2021/07/23 01:27:56;;;;;;;3.78;3.40;;;;;;;;;;3529855;39;106920;-62
2021/07/23 01:30:25;;;;;;;3.90;3.60;;;;;;;;;;3529417;39;107800;-61
2021/07/23 01:32:52;;;;;;;3.65;3.35;;;;;;;;;;3530088;39;105257;-62
2021/07/23 01:35:22;;;;;;;4.15;3.28;;;;;;;;;;3520520;39;105291;-61
2021/07/23 01:37:50;;;;;;;4.57;3.60;;;;;;;;;;3529597;39;106956;-59
2021/07/23 01:40:17;;;;;;;3.85;3.35;;;;;;;;;;3529680;39;107444;-60
2021/07/23 01:42:46;;;;;;;3.80;3.35;;;;;;;;;;3529749;39;105801;-60
2021/07/23 01:45:13;;;;;;;4.10;3.33;;;;;;;;;;3529327;39;105347;-61
2021/07/23 01:47:40;;;;;;;5.72;3.50;;;;;;;;;;3529498;39;106874;-61
2021/07/23 01:50:07;;;;;;;3.85;3.40;;;;;;;;;;3529424;39;107516;-61
2021/07/23 01:52:37;;;;;;;3.95;3.13;;;;;;;;;;3529545;39;105741;-61
2021/07/23 01:55:04;;;;;;;4.57;3.30;;;;;;;;;;3529726;39;105472;-60
2021/07/23 01:57:34;;;;;;;3.63;3.30;;;;;;;;;;3529196;39;106853;-60
2021/07/23 02:00:04;;;;;;;3.80;3.42;;;;;;;;;;3529293;39;107433;-61
2021/07/23 02:02:30;;;;;;;3.47;3.10;;;;;;;;;;3529525;39;105209;-60
2021/07/23 02:04:59;;;;;;;4.63;3.25;;;;;;;;;;3529484;39;105673;-61
2021/07/23 02:07:29;;;;;;;3.90;3.50;;;;;;;;;;3529348;39;106922;-62
2021/07/23 02:09:56;;;;;;;3.58;3.25;;;;;;;;;;3529315;39;107863;-60
2021/07/23 02:12:23;;;;;;;3.70;3.40;;;;;;;;;;3529134;39;105291;-61
2021/07/23 02:14:50;;;;;;;3.42;3.13;;;;;;;;;;3529307;39;105352;-60
2021/07/23 02:17:17;;;;;;;3.80;3.40;;;;;;;;;;3529506;39;107031;-61
2021/07/23 02:19:45;;;;;;;3.40;2.95;;;;;;;;;;3529235;39;107498;-60
2021/07/23 02:22:12;;;;;;;4.05;3.20;;;;;;;;;;3529253;39;105315;-60
2021/07/23 02:24:38;;;;;;;3.35;2.85;;;;;;;;;;3529339;39;105263;-61
2021/07/23 02:27:05;;;;;;;3.13;2.83;;;;;;;;;;3529057;39;106976;-61
2021/07/23 02:29:32;;;;;;;3.40;3.10;;;;;;;;;;3528882;39;107452;-60
2021/07/23 02:31:59;;;;;;;4.22;3.05;;;;;;;;;;3529547;39;105174;-62
2021/07/23 02:34:30;;;;;;;3.92;2.88;;;;;;;;;;3529195;39;105632;-61
2021/07/23 02:36:57;;;;;;;3.58;3.28;;;;;;;;;;3529034;39;107157;-61
2021/07/23 02:39:25;;;;;;;3.10;2.80;;;;;;;;;;3529265;39;107503;-60
2021/07/23 02:41:52;;;;;;;3.20;2.90;;;;;;;;;;3529290;39;105231;-61
2021/07/23 02:44:19;;;;;;;4.43;3.20;;;;;;;;;;3529026;39;105324;-61
2021/07/23 02:46:46;;;;;;;3.53;3.22;;;;;;;;;;3529267;39;106836;-61
2021/07/23 02:49:12;;;;;;;4.70;2.90;;;;;;;;;;3528873;39;107570;-60
2021/07/23 02:51:39;;;;;;;3.28;3.00;;;;;;;;;;3529140;39;105293;-61
2021/07/23 02:54:06;;;;;;;3.95;3.47;;;;;;;;;;3529371;39;105740;-61
2021/07/23 02:56:33;;;;;;;3.40;3.10;;;;;;;;;;3529098;39;106853;-60
2021/07/23 02:59:00;;;;;;;3.45;3.15;;;;;;;;;;3528607;39;107428;-62
2021/07/23 03:01:30;;;;;;;3.30;3.00;;;;;;;;;;3528522;39;106185;-59
2021/07/23 03:03:57;;;;;;;3.13;2.90;;;;;;;;;;3519299;40;105561;-62
2021/07/23 03:06:24;;;;;;;4.13;3.20;;;;;;;;;;3518887;40;106865;-61
2021/07/23 03:08:51;;;;;;;3.33;2.85;;;;;;;;;;3519922;40;107459;-61
2021/07/23 03:11:18;;;;;;;3.22;2.92;;;;;;;;;;3520377;40;105340;-61
2021/07/23 03:13:44;;;;;;;3.20;2.90;;;;;;;;;;3520204;40;105300;-62
2021/07/23 03:16:14;;;;;;;3.83;3.15;;;;;;;;;;3520233;40;107211;-61
2021/07/23 03:18:42;;;;;;;3.45;2.83;;;;;;;;;;3520414;40;107670;-61
2021/07/23 03:21:11;;;;;;;3.30;2.78;;;;;;;;;;3520728;40;105286;-61
2021/07/23 03:23:38;;;;;;;3.53;3.22;;;;;;;;;;3520615;40;105505;-61
2021/07/23 03:26:06;;;;;;;3.30;2.63;;;;;;;;;;3520460;40;106859;-62
2021/07/23 03:28:33;;;;;;;3.28;2.97;;;;;;;;;;3520226;40;107480;-61
2021/07/23 03:31:00;;;;;;;3.72;3.33;;;;;;;;;;3520297;40;105226;-60
2021/07/23 03:33:27;;;;;;;3.30;3.00;;;;;;;;;;3520352;40;105371;-62
2021/07/23 03:35:54;;;;;;;3.30;3.00;;;;;;;;;;3520283;40;106875;-60
2021/07/23 03:38:21;;;;;;;3.42;3.13;;;;;;;;;;3520120;40;107786;-62
2021/07/23 03:40:48;;;;;;;3.47;3.17;;;;;;;;;;3520611;40;105192;-61
2021/07/23 03:43:15;;;;;;;3.30;3.00;;;;;;;;;;3520010;40;105555;-62
2021/07/23 03:45:43;;;;;;;3.08;2.78;;;;;;;;;;3520064;40;106823;-60
2021/07/23 03:48:09;;;;;;;5.68;3.13;;;;;;;;;;3520130;40;107491;-61
2021/07/23 03:50:36;;;;;;;4.30;3.03;;;;;;;;;;3520236;40;105351;-61
2021/07/23 03:53:03;;;;;;;2.95;2.65;;;;;;;;;;3520562;40;105309;-61
2021/07/23 03:55:30;;;;;;;3.03;2.72;;;;;;;;;;3520081;40;106830;-62
2021/07/23 03:57:57;;;;;;;3.50;3.20;;;;;;;;;;3519838;40;107595;-61
2021/07/23 04:00:24;;;;;;;3.55;2.75;;;;;;;;;;3527013;39;105620;-60
2021/07/23 04:02:51;;;;;;;3.50;3.20;;;;;;;;;;3537285;39;105442;-61
2021/07/23 04:05:18;;;;;;;3.25;2.95;;;;;;;;;;3533263;39;107124;-61
2021/07/23 04:07:45;;;;;;;3.45;3.15;;;;;;;;;;3532319;39;107639;-61
2021/07/23 04:10:12;;;;;;;3.50;2.88;;;;;;;;;;3537551;39;105526;-60
2021/07/23 04:12:39;;;;;;;3.10;2.80;;;;;;;;;;3535439;39;105976;-62
2021/07/23 04:15:09;;;;;;;4.13;3.10;;;;;;;;;;3529762;39;106807;-61
2021/07/23 04:20:08;;;;;;;3.22;2.92;;;;;;;;;;3559259;39;105337;-61
2021/07/23 04:22:35;;;;;;;3.42;3.13;;;;;;;;;;3551415;39;105538;-60
2021/07/23 04:25:02;;;;;;;3.05;2.85;;;;;;;;;;3547569;39;107313;-59
2021/07/23 04:27:29;;;;;;;3.75;2.78;;;;;;;;;;3552696;39;107510;-61
2021/07/23 04:29:56;;;;;;;3.63;2.88;;;;;;;;;;3557288;39;105316;-60
2021/07/23 04:32:23;;;;;;;3.40;2.70;;;;;;;;;;3552017;39;105645;-60
2021/07/23 04:34:50;;;;;;;3.65;3.28;;;;;;;;;;3547220;39;107082;-61
2021/07/23 04:37:17;;;;;;;3.72;3.30;;;;;;;;;;3551159;39;108402;-60
2021/07/23 04:39:44;;;;;;;3.42;3.13;;;;;;;;;;3556139;39;105198;-60
2021/07/23 04:42:11;;;;;;;3.35;3.05;;;;;;;;;;3549063;39;105566;-61
2021/07/23 04:44:38;;;;;;;3.17;2.88;;;;;;;;;;3547225;39;106894;-59
2021/07/23 04:47:05;;;;;;;3.25;2.95;;;;;;;;;;3557289;39;107504;-59
2021/07/23 04:49:32;;;;;;;4.32;3.50;;;;;;;;;;3551801;39;105444;-60
2021/07/23 04:51:59;;;;;;;3.28;2.85;;;;;;;;;;3556761;39;105185;-59
2021/07/23 04:54:26;;;;;;;4.38;3.10;;;;;;;;;;3557024;39;107311;-60
2021/07/23 04:56:54;;;;;;;3.10;2.80;;;;;;;;;;3557071;39;107692;-60
2021/07/23 04:59:21;;;;;;;4.45;3.35;;;;;;;;;;3556984;39;105390;-59
2021/07/23 05:01:48;;;;;;;4.80;3.30;;;;;;;;;;3557342;39;105288;-60
2021/07/23 05:04:16;;;;;;;4.00;3.38;;;;;;;;;;3557042;39;106943;-60
2021/07/23 05:06:43;;;;;;;3.17;2.88;;;;;;;;;;3557331;39;107509;-60
2021/07/23 05:09:10;;;;;;;3.60;3.08;;;;;;;;;;3557401;39;105379;-62
2021/07/23 05:11:37;;;;;;;3.88;3.00;;;;;;;;;;3557181;39;105165;-61
2021/07/23 05:14:06;;;;;;;3.17;2.88;;;;;;;;;;3556874;39;105798;-60
2021/07/23 05:16:34;;;;;;;4.22;3.20;;;;;;;;;;3557021;39;108256;-61
2021/07/23 05:19:05;;;;;;;3.90;3.50;;;;;;;;;;3551310;39;105163;-61
2021/07/23 05:21:35;;;;;;;3.60;3.28;;;;;;;;;;3547149;39;105292;-61
2021/07/23 05:24:04;;;;;;;3.25;2.92;;;;;;;;;;3547272;39;107132;-60
2021/07/23 05:26:35;;;;;;;6.20;3.35;;;;;;;;;;3546420;39;107522;-62
2021/07/23 05:29:03;;;;;;;4.32;3.72;;;;;;;;;;3547052;39;105377;-61
2021/07/23 05:31:30;;;;;;;4.70;3.10;;;;;;;;;;3540200;39;105297;-61
2021/07/23 05:33:58;;;;;;;3.90;3.42;;;;;;;;;;3540146;39;107006;-62
2021/07/23 05:36:25;;;;;;;3.72;3.22;;;;;;;;;;3539985;39;107476;-59
2021/07/23 05:38:52;;;;;;;3.78;3.28;;;;;;;;;;3540243;39;105328;-60
2021/07/23 05:41:19;;;;;;;4.50;3.20;;;;;;;;;;3540236;39;105281;-61
2021/07/23 05:43:46;;;;;;;4.38;3.58;;;;;;;;;;3540094;39;106925;-62
2021/07/23 05:46:13;;;;;;;4.32;3.22;;;;;;;;;;3540014;39;107165;-60
2021/07/23 05:48:40;;;;;;;4.15;3.40;;;;;;;;;;3540481;39;105690;-61
2021/07/23 05:51:09;;;;;;;5.93;3.58;;;;;;;;;;3540211;39;105464;-62
2021/07/23 05:53:36;;;;;;;3.65;3.35;;;;;;;;;;3540397;39;106828;-60
2021/07/23 05:56:04;;;;;;;4.13;3.40;;;;;;;;;;3540186;39;107485;-61
2021/07/23 05:58:31;;;;;;;4.80;3.58;;;;;;;;;;3539886;39;105709;-60
2021/07/23 06:00:58;;;;;;;4.20;3.80;;;;;;;;;;3540193;39;105405;-60
2021/07/23 06:03:25;;;;;;;4.35;3.47;;;;;;;;;;3540319;39;106594;-60
2021/07/23 06:05:52;;;;;;;3.92;3.55;;;;;;;;;;3539988;39;107608;-61
2021/07/23 06:08:19;;;;;;;3.97;3.47;;;;;;;;;;3540386;39;105533;-62
2021/07/23 06:10:46;;;;;;;3.78;3.42;;;;;;;;;;3540133;39;105250;-61
2021/07/23 06:13:13;;;;;;;3.60;3.30;;;;;;;;;;3540096;39;107232;-61
2021/07/23 06:15:40;;;;;;;4.35;3.80;;;;;;;;;;3539778;39;107561;-61
2021/07/23 06:18:07;;;;;;;5.38;3.50;;;;;;;;;;3539992;39;105247;-60
2021/07/23 06:20:34;;;;;;;3.75;3.40;;;;;;;;;;3540346;39;105726;-59
2021/07/23 06:23:00;;;;;;;4.20;3.78;;;;;;;;;;3540133;39;107924;-59
2021/07/23 06:25:27;;;;;;;4.90;3.80;;;;;;;;;;3539742;39;107484;-60
2021/07/23 06:27:54;;;;;;;3.78;3.40;;;;;;;;;;3540009;39;105226;-59
2021/07/23 06:30:21;;;;;;;4.25;3.83;;;;;;;;;;3539821;39;105182;-61
2021/07/23 06:32:48;;;;;;;4.55;3.53;;;;;;;;;;3540055;39;106793;-59
2021/07/23 06:35:15;;;;;;;4.20;3.47;;;;;;;;;;3540175;39;107488;-59
2021/07/23 06:37:42;;;;;;;4.60;3.63;;;;;;;;;;3540042;39;105300;-59
2021/07/23 06:40:09;;;;;;;5.15;4.05;;;;;;;;;;3540066;39;105306;-60
2021/07/23 06:42:36;;;;;;;4.95;3.85;;;;;;;;;;3539258;39;107499;-60
2021/07/23 06:45:04;;;;;;;5.85;4.43;;;;;;;;;;3539719;39;107208;-59
2021/07/23 06:47:31;;;;;;;5.75;4.25;;;;;;;;;;3539807;39;105773;-61
2021/07/23 06:49:58;;;;;;;5.22;4.20;;;;;;;;;;3540063;39;105350;-61
2021/07/23 06:52:25;;;;;;;4.95;4.10;;;;;;;;;;3538980;39;106684;-59
2021/07/23 06:54:54;;;;;;;5.40;4.20;;;;;;;;;;3538683;39;107686;-59
2021/07/23 06:57:21;;;;;;;6.63;4.10;;;;;;;;;;3538813;39;105425;-61
2021/07/23 06:59:49;;;;;;;5.22;4.03;;;;;;;;;;3538636;39;105639;-60
2021/07/23 07:02:17;;;;;;;5.00;4.22;;;;;;;;;;3538597;39;107202;-60
2021/07/23 07:04:45;;;;;;;4.50;4.10;;;;;;;;;;3538924;39;107617;-60
2021/07/23 07:07:13;;;;;;;4.85;4.13;;;;;;;;;;3538813;39;105389;-59
2021/07/23 07:09:42;;;;;;;5.78;4.60;;;;;;;;;;3539115;39;105278;-60
2021/07/23 07:12:10;;;;;;;5.10;4.10;;;;;;;;;;3538691;39;107077;-61
2021/07/23 07:14:37;;;;;;;4.97;4.32;;;;;;;;;;3538483;39;107180;-61
2021/07/23 07:17:04;;;;;;;6.00;4.75;;;;;;;;;;3538929;39;105580;-61
2021/07/23 07:19:31;;;;;;;5.97;5.28;;;;;;;;;;3538938;39;105418;-62
2021/07/23 07:21:58;;;;;;;5.93;4.47;;;;;;;;;;3538632;39;106889;-61
2021/07/23 07:24:25;;;;;;;7.38;5.07;;;;;;;;;;3538633;39;107505;-61
2021/07/23 07:26:53;;;;;;;5.75;4.65;;;;;;;;;;3538992;39;105346;-61
2021/07/23 07:29:20;;;;;;;5.93;5.35;;;;;;;;;;3538513;39;105316;-62
2021/07/23 07:31:47;;;;;;;7.28;5.60;;;;;;;;;;3538597;39;106852;-58
2021/07/23 07:34:14;;;;;;;8.80;6.15;;;;;;;;;;3538530;39;107528;-60
2021/07/23 07:36:41;;;;;;;8.68;6.43;;;;;;;;;;3538796;39;105591;-60
2021/07/23 07:39:09;;;;;;;9.13;7.07;;;;;;;;;;3538911;39;105688;-61
2021/07/23 07:41:36;;;;;;;9.77;7.15;;;;;;;;;;3538783;39;106919;-61
2021/07/23 07:44:04;;;;;;;12.98;9.20;;;;;;;;;;3538631;39;107700;-60
2021/07/23 07:46:32;;;;;;;12.00;8.45;;;;;;;;;;3538351;39;105678;-62
2021/07/23 07:48:59;;;;;;;10.05;7.82;;;;;;;;;;3538428;39;105623;-61
2021/07/23 07:51:25;;;;;;;13.38;9.75;;;;;;;;;;3538702;39;106702;-59
2021/07/23 07:53:52;;;;;;;11.82;9.35;;;;;;;;;;3538173;39;107488;-60
2021/07/23 07:56:19;;;;;;;13.80;9.93;;;;;;;;;;3538386;39;105740;-60
2021/07/23 07:58:46;;;;;;;13.23;10.02;;;;;;;;;;3538693;39;105645;-60
2021/07/23 08:01:14;;;;;;;14.07;10.45;;;;;;;;;;3538379;39;106814;-61
2021/07/23 08:03:41;;;;;;;13.38;9.73;;;;;;;;;;3538154;39;108046;-60
2021/07/23 08:06:21;;;;;;;14.48;10.00;;;;;;;;;;3538520;39;105764;-62
2021/07/23 08:08:49;;;;;;;15.85;11.25;;;;;;;;;;3538628;39;105336;-62
2021/07/23 08:11:16;;;;;;;14.55;11.30;;;;;;;;;;3538485;39;106936;-60
2021/07/23 08:13:43;;;;;;;14.30;9.77;;;;;;;;;;3538239;39;107833;-61
2021/07/23 08:16:12;;;;;;;14.43;10.85;;;;;;;;;;3538510;39;105786;-61
2021/07/23 08:18:39;;;;;;;17.80;12.02;;;;;;;;;;3537660;39;105595;-59
2021/07/23 08:21:07;;;;;;;15.70;10.88;;;;;;;;;;3538091;39;106930;-61
2021/07/23 08:23:35;;;;;;;17.77;13.20;;;;;;;;;;3538397;39;108303;-62
2021/07/23 08:26:04;;;;;;;15.70;11.98;;;;;;;;;;3539232;39;105447;-62
2021/07/23 08:28:35;;;;;;;19.33;13.10;;;;;;;;;;3539424;39;105352;-59
2021/07/23 08:31:03;;;;;;;17.60;11.98;;;;;;;;;;3538318;39;106882;-61
2021/07/23 08:33:30;;;;;;;15.68;11.68;;;;;;;;;;3539091;39;107570;-61
2021/07/23 08:35:57;;;;;;;14.82;11.55;;;;;;;;;;3539423;39;105174;-62
2021/07/23 08:38:24;;;;;;;18.92;12.40;;;;;;;;;;3539675;39;105283;-62
2021/07/23 08:40:51;;;;;;;20.10;12.95;;;;;;;;;;3539082;39;107120;-61
2021/07/23 08:43:18;;;;;;;17.75;12.38;;;;;;;;;;3533597;39;107452;-60
2021/07/23 08:45:45;;;;;;;20.33;12.88;;;;;;;;;;3532464;39;105357;-61
2021/07/23 08:48:12;;;;;;;21.48;13.60;;;;;;;;;;3535293;39;105473;-64
2021/07/23 08:50:40;;;;;;;21.38;12.63;;;;;;;;;;3532820;39;106811;-62
2021/07/23 08:53:09;;;;;;;19.02;12.65;;;;;;;;;;3537371;39;107554;-61
2021/07/23 08:55:38;;;;;;;16.60;11.90;;;;;;;;;;3530290;39;105346;-59
2021/07/23 08:58:09;;;;;;;15.40;11.43;;;;;;;;;;3539375;39;105455;-62
2021/07/23 09:00:38;;;;;;;18.13;12.13;;;;;;;;;;3530860;39;106703;-63
2021/07/23 09:03:09;;;;;;;19.40;11.93;;;;;;;;;;3520227;39;107693;-60
2021/07/23 09:05:38;;;;;;;16.42;11.38;;;;;;;;;;3534483;39;105226;-62
2021/07/23 09:08:16;;;;;;;16.75;10.70;;;;;;;;;;3534665;39;105799;-61
2021/07/23 09:10:44;;;;;;;13.82;10.48;;;;;;;;;;3535615;39;107003;-60
2021/07/23 09:13:21;;;;;;;17.15;10.85;;;;;;;;;;3530326;39;107904;-62
2021/07/23 09:15:48;;;;;;;13.35;9.93;;;;;;;;;;3524724;39;105847;-62
2021/07/23 09:18:33;;;;;;;15.63;10.45;;;;;;;;;;3530514;39;105457;-62
2021/07/23 09:21:05;;;;;;;12.10;9.18;;;;;;;;;;3531454;39;107153;-64
2021/07/23 09:23:35;;;;;;;13.50;9.60;;;;;;;;;;3531429;39;107918;-63
2021/07/23 09:26:16;;;;;;;15.93;9.77;;;;;;;;;;3531783;39;106066;-62
2021/07/23 09:28:47;;;;;;;11.07;7.85;;;;;;;;;;3531492;39;106355;-61
2021/07/23 09:31:28;;;;;;;13.23;8.52;;;;;;;;;;3531553;39;109274;-63
2021/07/23 09:34:05;;;;;;;10.55;7.50;;;;;;;;;;3529673;39;107533;-63
2021/07/23 09:36:32;;;;;;;11.73;7.90;;;;;;;;;;3529348;39;105620;-62
2021/07/23 09:39:19;;;;;;;10.63;8.10;;;;;;;;;;3529530;39;105503;-60
2021/07/23 09:42:01;;;;;;;10.68;7.47;;;;;;;;;;3529718;39;107234;-60
2021/07/23 09:44:28;;;;;;;9.15;6.72;;;;;;;;;;3530283;39;107852;-63
2021/07/23 09:46:56;;;;;;;11.35;7.40;;;;;;;;;;3530073;39;105247;-64
2021/07/23 09:49:26;;;;;;;9.68;7.03;;;;;;;;;;3530186;39;105267;-64
2021/07/23 09:51:55;;;;;;;10.32;7.18;;;;;;;;;;3529993;39;106890;-62
2021/07/23 09:54:23;;;;;;;10.85;6.93;;;;;;;;;;3529942;39;107494;-63
2021/07/23 09:56:51;;;;;;;9.15;6.53;;;;;;;;;;3532502;39;106149;-62
2021/07/23 09:59:36;;;;;;;8.32;6.30;;;;;;;;;;3531659;39;105584;-64
2021/07/23 10:02:05;;;;;;;8.95;5.65;;;;;;;;;;3529712;39;106847;-65
2021/07/23 10:04:35;;;;;;;8.60;5.70;;;;;;;;;;3530139;39;107256;-59
2021/07/23 10:07:09;;;;;;;8.23;5.90;;;;;;;;;;3530069;39;105750;-61
2021/07/23 10:09:39;;;;;;;7.07;5.20;;;;;;;;;;3536612;39;105521;-61
2021/07/23 10:12:07;;;;;;;;;;;;;;;;;;3540559;39;106808;-63
2021/07/23 10:14:45;;;;;;;7.28;5.40;;;;;;;;;;3539017;39;137445;-65
2021/07/23 10:17:14;;;;;;;8.32;5.25;;;;;;;;;;3539963;39;105409;-65
2021/07/23 10:19:41;;;;;;;5.65;4.85;;;;;;;;;;3539870;39;106513;-63
2021/07/23 10:22:12;;;;;;;8.68;5.28;;;;;;;;;;3535603;39;106766;-65
2021/07/23 10:24:43;;;;;;;7.65;5.00;;;;;;;;;;3525832;39;107636;-64
2021/07/23 10:27:14;;;;;;;6.15;4.90;;;;;;;;;;3533600;39;105624;-62
2021/07/23 10:29:45;;;;;;;;;;;;;;;;;;3534521;39;105831;-63
2021/07/23 10:32:38;;;;;;;8.00;5.25;;;;;;;;;;3533329;39;137156;-64
2021/07/23 10:35:14;;;;;;;7.30;4.72;;;;;;;;;;3532095;39;107621;-65
2021/07/23 10:37:43;;;;;;;6.85;4.88;;;;;;;;;;3533919;39;105383;-62
2021/07/23 10:40:11;;;;;;;7.27;4.70;;;;;;;;;;3534400;39;105670;-61
2021/07/23 10:42:42;;;;;;;8.35;4.63;;;;;;;;;;3534651;39;106946;-62
2021/07/23 10:45:15;;;;;;;6.63;4.60;;;;;;;;;;3534243;39;107826;-64
2021/07/23 10:47:45;;;;;;;6.93;4.50;;;;;;;;;;3533812;39;105664;-61
2021/07/23 10:50:23;;;;;;;5.72;4.40;;;;;;;;;;3534175;39;105544;-61
2021/07/23 10:52:50;;;;;;;6.40;4.50;;;;;;;;;;3534384;39;106135;-64
2021/07/23 10:55:27;;;;;;;5.10;3.75;;;;;;;;;;3533940;39;106381;-63
2021/07/23 10:58:09;;;;;;;5.88;3.72;;;;;;;;;;3533865;39;105390;-63
2021/07/23 11:00:58;;;;;;;6.32;4.10;;;;;;;;;;3534631;39;105917;-61
2021/07/23 11:03:35;;;;;;;7.18;4.00;;;;;;;;;;3525176;39;106761;-63
2021/07/23 11:06:23;;;;;;;5.88;3.75;;;;;;;;;;3533620;39;107969;-61
2021/07/23 11:09:04;;;;;;;6.63;3.70;;;;;;;;;;3533079;39;105386;-62
2021/07/23 11:11:35;;;;;;;4.47;3.47;;;;;;;;;;3525527;39;105708;-63
2021/07/23 11:14:17;;;;;;;5.55;3.30;;;;;;;;;;3533606;39;106988;-62
2021/07/23 11:16:46;;;;;;;5.22;3.47;;;;;;;;;;3533573;39;107194;-63
2021/07/23 11:19:19;;;;;;;6.95;3.40;;;;;;;;;;3533848;39;105822;-64
2021/07/23 11:21:46;;;;;;;4.57;2.65;;;;;;;;;;3533932;39;105269;-63
2021/07/23 11:24:16;;;;;;;4.15;3.03;;;;;;;;;;3533906;39;106897;-60
2021/07/23 11:26:56;;;;;;;4.35;3.25;;;;;;;;;;3533651;39;107503;-63
2021/07/23 11:29:38;;;;;;;5.68;3.60;;;;;;;;;;3533391;39;105599;-63
2021/07/23 11:32:12;;;;;;;5.70;3.42;;;;;;;;;;3533585;39;105376;-63
2021/07/23 11:34:44;;;;;;;5.22;3.15;;;;;;;;;;3533509;39;106936;-64
2021/07/23 11:37:29;;;;;;;4.65;3.17;;;;;;;;;;3534037;39;107490;-61
2021/07/23 11:40:01;;;;;;;5.32;3.17;;;;;;;;;;3534594;39;105387;-62
2021/07/23 11:42:41;;;;;;;6.07;3.25;;;;;;;;;;3534275;39;105528;-65
2021/07/23 11:45:10;;;;;;;5.75;3.33;;;;;;;;;;3533893;39;107184;-61
2021/07/23 11:47:43;;;;;;;5.25;3.22;;;;;;;;;;3532828;39;107482;-62
2021/07/23 11:50:22;;;;;;;6.75;3.63;;;;;;;;;;3533892;39;105628;-62
2021/07/23 11:52:51;;;;;;;6.18;3.25;;;;;;;;;;3533995;39;105578;-62
2021/07/23 11:55:19;;;;;;;3.70;2.85;;;;;;;;;;3524195;39;106871;-63
2021/07/23 11:57:48;;;;;;;7.75;3.33;;;;;;;;;;3533991;39;107471;-63
2021/07/23 12:00:22;;;;;;;4.78;2.78;;;;;;;;;;3534584;39;105299;-63
2021/07/23 12:02:55;;;;;;;5.38;3.15;;;;;;;;;;3533321;39;105555;-62
2021/07/23 12:05:23;;;;;;;6.90;3.17;;;;;;;;;;3534232;39;106909;-63
2021/07/23 12:08:01;;;;;;;5.70;3.20;;;;;;;;;;3533335;39;107814;-61
2021/07/23 12:10:32;;;;;;;4.07;3.28;;;;;;;;;;3533379;39;105514;-60
2021/07/23 12:13:08;;;;;;;5.50;3.40;;;;;;;;;;3533142;39;105441;-64
2021/07/23 12:16:00;;;;;;;4.53;3.10;;;;;;;;;;3523734;39;107375;-65
2021/07/23 12:18:29;;;;;;;5.47;3.05;;;;;;;;;;3529541;39;107557;-64
2021/07/23 12:21:10;;;;;;;6.63;3.40;;;;;;;;;;3530417;39;105430;-63
2021/07/23 12:23:37;;;;;;;5.43;3.45;;;;;;;;;;3534036;39;105544;-61
2021/07/23 12:26:04;;;;;;;5.22;3.10;;;;;;;;;;3533320;39;106806;-63
2021/07/23 12:28:54;;;;;;;5.37;3.30;;;;;;;;;;3533585;39;107477;-62
2021/07/23 12:31:30;;;;;;;7.13;3.42;;;;;;;;;;3533036;39;105388;-63
2021/07/23 12:34:11;;;;;;;4.65;3.00;;;;;;;;;;3533310;39;105563;-60
2021/07/23 12:36:51;;;;;;;5.00;3.03;;;;;;;;;;3533076;39;106922;-61
2021/07/23 12:39:22;;;;;;;5.60;3.17;;;;;;;;;;3539072;39;107436;-61
2021/07/23 12:41:51;;;;;;;5.90;3.13;;;;;;;;;;3531252;39;105576;-63
2021/07/23 12:44:19;;;;;;;4.57;3.22;;;;;;;;;;3531484;39;105641;-64
2021/07/23 12:46:48;;;;;;;4.32;2.80;;;;;;;;;;3539628;39;106882;-64
2021/07/23 12:49:22;;;;;;;4.10;3.17;;;;;;;;;;3540583;39;107280;-64
2021/07/23 12:52:03;;;;;;;4.72;3.00;;;;;;;;;;3540732;39;105502;-62
2021/07/23 12:54:40;;;;;;;3.72;2.63;;;;;;;;;;3540541;39;105527;-63
2021/07/23 12:57:17;;;;;;;4.95;2.85;;;;;;;;;;3540268;39;106855;-63
2021/07/23 12:59:46;;;;;;;4.65;3.00;;;;;;;;;;3540456;39;106404;-63
2021/07/23 13:02:14;;;;;;;4.70;2.63;;;;;;;;;;3526295;39;105398;-63
2021/07/23 13:04:42;;;;;;;4.68;2.95;;;;;;;;;;3538125;39;105608;-62
2021/07/23 13:07:15;;;;;;;4.75;3.15;;;;;;;;;;3539193;39;107441;-64
2021/07/23 13:09:45;;;;;;;5.60;3.03;;;;;;;;;;3522271;39;107648;-61
2021/07/23 13:12:15;;;;;;;6.72;3.13;;;;;;;;;;3530851;39;105610;-60
2021/07/23 13:14:42;;;;;;;5.82;3.60;;;;;;;;;;3530477;39;105413;-61
2021/07/23 13:17:09;;;;;;;5.95;3.22;;;;;;;;;;3530223;39;107149;-62
2021/07/23 13:19:36;;;;;;;6.20;3.10;;;;;;;;;;3530875;39;108097;-62
2021/07/23 13:22:04;;;;;;;4.80;3.25;;;;;;;;;;3531113;39;105484;-65
2021/07/23 13:24:32;;;;;;;5.63;3.22;;;;;;;;;;3530350;39;105669;-62
2021/07/23 13:27:03;;;;;;;6.68;2.92;;;;;;;;;;3533850;39;105764;-61
2021/07/23 13:29:30;;;;;;;5.57;2.90;;;;;;;;;;3539971;39;108028;-61
2021/07/23 13:31:57;;;;;;;4.57;2.88;;;;;;;;;;3532299;39;105338;-62
2021/07/23 13:34:24;;;;;;;5.28;2.50;;;;;;;;;;3533976;39;105331;-64
2021/07/23 13:36:57;;;;;;;4.40;2.55;;;;;;;;;;3534477;39;106813;-62
2021/07/23 13:39:36;;;;;;;4.72;2.55;;;;;;;;;;3534743;39;107598;-62
2021/07/23 13:42:08;;;;;;;4.97;2.50;;;;;;;;;;3533189;39;105551;-63
2021/07/23 13:44:36;;;;;;;4.18;2.47;;;;;;;;;;3535160;39;105712;-63
2021/07/23 13:47:03;;;;;;;6.45;2.33;;;;;;;;;;3538058;39;106852;-62
2021/07/23 13:49:30;;;;;;;3.30;1.95;;;;;;;;;;3530119;39;107490;-63
2021/07/23 13:51:57;;;;;;;4.22;2.03;;;;;;;;;;3530318;39;105496;-59
2021/07/23 13:54:25;;;;;;;3.88;1.80;;;;;;;;;;3531067;39;105721;-63
2021/07/23 13:56:52;;;;;;;3.38;2.03;;;;;;;;;;3530070;39;106862;-62
2021/07/23 13:59:19;;;;;;;2.72;1.80;;;;;;;;;;3531551;39;107689;-63
2021/07/23 14:01:46;;;;;;;4.07;2.17;;;;;;;;;;3534286;39;105618;-63
2021/07/23 14:04:13;;;;;;;4.28;2.15;;;;;;;;;;3532434;39;105565;-59
2021/07/23 14:06:40;;;;;;;2.75;1.70;;;;;;;;;;3532200;39;106889;-63
2021/07/23 14:09:07;;;;;;;2.95;2.00;;;;;;;;;;3539435;39;108050;-62
2021/07/23 14:11:34;;;;;;;4.03;2.10;;;;;;;;;;3532461;39;105315;-63
2021/07/23 14:14:03;;;;;;;2.92;2.03;;;;;;;;;;3532630;39;105389;-61
2021/07/23 14:16:30;;;;;;;3.75;1.98;;;;;;;;;;3536802;39;107045;-61
2021/07/23 14:18:57;;;;;;;4.60;2.10;;;;;;;;;;3532738;39;107592;-62
2021/07/23 14:21:23;;;;;;;2.60;2.00;;;;;;;;;;3533658;39;105858;-62
2021/07/23 14:23:50;;;;;;;3.63;2.20;;;;;;;;;;3534129;39;105390;-62
2021/07/23 14:26:20;;;;;;;3.28;2.10;;;;;;;;;;3533458;39;107495;-60
2021/07/23 14:28:48;;;;;;;3.08;2.13;;;;;;;;;;3533407;39;107437;-60
2021/07/23 14:31:18;;;;;;;3.25;2.10;;;;;;;;;;3533558;39;105221;-60
2021/07/23 14:33:46;;;;;;;3.25;2.20;;;;;;;;;;3533554;39;105604;-62
2021/07/23 14:36:18;;;;;;;3.33;2.40;;;;;;;;;;3532935;39;106897;-60
2021/07/23 14:38:47;;;;;;;3.13;2.17;;;;;;;;;;3533473;39;107990;-62
2021/07/23 14:41:15;;;;;;;4.13;2.30;;;;;;;;;;3534135;39;105775;-61
2021/07/23 14:43:41;;;;;;;3.38;2.10;;;;;;;;;;3532835;39;106134;-62